sensor_id;sensor_type;location;lat;lon;timestamp;P1;durP1;ratioP1;P2;durP2;ratioP2
27013;SDS011;14556;52.222;4.510;2024-01-30T00:00:51;13.60;;;7.77;;
27013;SDS011;14556;52.222;4.510;2024-01-30T00:03:18;12.27;;;7.63;;
27013;SDS011;14556;52.222;4.510;2024-01-30T00:05:45;12.57;;;7.77;;
27013;SDS011;14556;52.222;4.510;2024-01-30T00:08:12;9.67;;;6.80;;
27013;SDS011;14556;52.222;4.510;2024-01-30T00:10:39;11.13;;;6.93;;
27013;SDS011;14556;52.222;4.510;2024-01-30T00:13:06;11.70;;;7.73;;
27013;SDS011;14556;52.222;4.510;2024-01-30T00:15:33;12.00;;;8.00;;
27013;SDS011;14556;52.222;4.510;2024-01-30T00:18:01;13.93;;;8.03;;
27013;SDS011;14556;52.222;4.510;2024-01-30T00:20:28;12.87;;;7.30;;
27013;SDS011;14556;52.222;4.510;2024-01-30T00:22:54;15.33;;;7.87;;
27013;SDS011;14556;52.222;4.510;2024-01-30T00:25:21;12.00;;;6.67;;
27013;SDS011;14556;52.222;4.510;2024-01-30T00:27:47;12.20;;;7.23;;
27013;SDS011;14556;52.222;4.510;2024-01-30T00:30:14;12.90;;;7.63;;
27013;SDS011;14556;52.222;4.510;2024-01-30T00:32:41;11.13;;;7.33;;
27013;SDS011;14556;52.222;4.510;2024-01-30T00:35:07;12.77;;;7.10;;
27013;SDS011;14556;52.222;4.510;2024-01-30T00:37:41;13.20;;;7.80;;
27013;SDS011;14556;52.222;4.510;2024-01-30T00:40:08;16.60;;;7.47;;
27013;SDS011;14556;52.222;4.510;2024-01-30T00:42:36;12.93;;;7.43;;
27013;SDS011;14556;52.222;4.510;2024-01-30T00:45:03;10.83;;;6.97;;
27013;SDS011;14556;52.222;4.510;2024-01-30T00:47:30;13.20;;;7.30;;
27013;SDS011;14556;52.222;4.510;2024-01-30T00:50:00;12.17;;;7.60;;
27013;SDS011;14556;52.222;4.510;2024-01-30T00:52:29;13.13;;;7.87;;
27013;SDS011;14556;52.222;4.510;2024-01-30T00:54:56;10.07;;;7.33;;
27013;SDS011;14556;52.222;4.510;2024-01-30T00:57:22;12.30;;;7.57;;
27013;SDS011;14556;52.222;4.510;2024-01-30T00:59:48;12.97;;;7.10;;
27013;SDS011;14556;52.222;4.510;2024-01-30T01:02:15;12.53;;;7.10;;
27013;SDS011;14556;52.222;4.510;2024-01-30T01:04:45;13.20;;;7.83;;
27013;SDS011;14556;52.222;4.510;2024-01-30T01:07:12;12.67;;;7.13;;
27013;SDS011;14556;52.222;4.510;2024-01-30T01:09:41;10.43;;;6.80;;
27013;SDS011;14556;52.222;4.510;2024-01-30T01:12:08;8.70;;;6.43;;
27013;SDS011;14556;52.222;4.510;2024-01-30T01:14:35;12.33;;;6.40;;
27013;SDS011;14556;52.222;4.510;2024-01-30T01:17:05;13.93;;;6.87;;
27013;SDS011;14556;52.222;4.510;2024-01-30T01:19:31;11.37;;;7.10;;
27013;SDS011;14556;52.222;4.510;2024-01-30T01:21:59;15.03;;;6.93;;
27013;SDS011;14556;52.222;4.510;2024-01-30T01:24:26;13.20;;;7.23;;
27013;SDS011;14556;52.222;4.510;2024-01-30T01:26:54;10.37;;;6.20;;
27013;SDS011;14556;52.222;4.510;2024-01-30T01:29:21;11.60;;;6.60;;
27013;SDS011;14556;52.222;4.510;2024-01-30T01:31:55;12.07;;;6.77;;
27013;SDS011;14556;52.222;4.510;2024-01-30T01:34:22;13.60;;;7.30;;
27013;SDS011;14556;52.222;4.510;2024-01-30T01:36:56;12.60;;;7.50;;
27013;SDS011;14556;52.222;4.510;2024-01-30T01:39:23;10.60;;;6.67;;
27013;SDS011;14556;52.222;4.510;2024-01-30T01:41:49;12.40;;;6.80;;
27013;SDS011;14556;52.222;4.510;2024-01-30T01:44:17;11.57;;;7.00;;
27013;SDS011;14556;52.222;4.510;2024-01-30T01:46:44;11.37;;;6.57;;
27013;SDS011;14556;52.222;4.510;2024-01-30T01:49:11;15.60;;;7.57;;
27013;SDS011;14556;52.222;4.510;2024-01-30T01:51:39;13.13;;;6.60;;
27013;SDS011;14556;52.222;4.510;2024-01-30T01:54:07;13.00;;;6.90;;
27013;SDS011;14556;52.222;4.510;2024-01-30T01:56:34;14.93;;;6.70;;
27013;SDS011;14556;52.222;4.510;2024-01-30T01:59:04;12.63;;;6.97;;
27013;SDS011;14556;52.222;4.510;2024-01-30T02:01:32;11.00;;;6.17;;
27013;SDS011;14556;52.222;4.510;2024-01-30T02:03:59;12.17;;;6.90;;
27013;SDS011;14556;52.222;4.510;2024-01-30T02:06:34;13.63;;;7.73;;
27013;SDS011;14556;52.222;4.510;2024-01-30T02:09:01;12.80;;;6.63;;
27013;SDS011;14556;52.222;4.510;2024-01-30T02:11:27;14.97;;;7.60;;
27013;SDS011;14556;52.222;4.510;2024-01-30T02:13:54;12.47;;;7.27;;
27013;SDS011;14556;52.222;4.510;2024-01-30T02:16:21;10.73;;;6.50;;
27013;SDS011;14556;52.222;4.510;2024-01-30T02:18:47;11.43;;;7.20;;
27013;SDS011;14556;52.222;4.510;2024-01-30T02:21:17;12.87;;;7.17;;
27013;SDS011;14556;52.222;4.510;2024-01-30T02:23:46;12.37;;;7.50;;
27013;SDS011;14556;52.222;4.510;2024-01-30T02:26:12;10.90;;;6.60;;
27013;SDS011;14556;52.222;4.510;2024-01-30T02:28:40;11.17;;;6.77;;
27013;SDS011;14556;52.222;4.510;2024-01-30T02:31:06;10.57;;;6.93;;
27013;SDS011;14556;52.222;4.510;2024-01-30T02:33:33;11.10;;;7.00;;
27013;SDS011;14556;52.222;4.510;2024-01-30T02:36:00;13.23;;;7.30;;
27013;SDS011;14556;52.222;4.510;2024-01-30T02:38:27;11.87;;;6.20;;
27013;SDS011;14556;52.222;4.510;2024-01-30T02:40:54;14.77;;;7.30;;
27013;SDS011;14556;52.222;4.510;2024-01-30T02:43:20;14.80;;;7.63;;
27013;SDS011;14556;52.222;4.510;2024-01-30T02:45:47;11.87;;;7.80;;
27013;SDS011;14556;52.222;4.510;2024-01-30T02:48:13;18.23;;;8.70;;
27013;SDS011;14556;52.222;4.510;2024-01-30T02:50:40;13.07;;;7.83;;
27013;SDS011;14556;52.222;4.510;2024-01-30T02:53:06;15.17;;;6.87;;
27013;SDS011;14556;52.222;4.510;2024-01-30T02:55:33;11.23;;;6.97;;
27013;SDS011;14556;52.222;4.510;2024-01-30T02:57:59;13.53;;;7.83;;
27013;SDS011;14556;52.222;4.510;2024-01-30T03:00:26;13.50;;;7.53;;
27013;SDS011;14556;52.222;4.510;2024-01-30T03:02:53;12.07;;;7.67;;
27013;SDS011;14556;52.222;4.510;2024-01-30T03:05:19;14.00;;;7.67;;
27013;SDS011;14556;52.222;4.510;2024-01-30T03:07:48;12.23;;;7.77;;
27013;SDS011;14556;52.222;4.510;2024-01-30T03:10:14;10.73;;;7.30;;
27013;SDS011;14556;52.222;4.510;2024-01-30T03:12:41;12.23;;;6.90;;
27013;SDS011;14556;52.222;4.510;2024-01-30T03:15:08;12.73;;;6.90;;
27013;SDS011;14556;52.222;4.510;2024-01-30T03:17:36;15.23;;;7.63;;
27013;SDS011;14556;52.222;4.510;2024-01-30T03:20:03;10.17;;;6.73;;
27013;SDS011;14556;52.222;4.510;2024-01-30T03:22:34;13.33;;;7.17;;
27013;SDS011;14556;52.222;4.510;2024-01-30T03:25:00;12.27;;;7.87;;
27013;SDS011;14556;52.222;4.510;2024-01-30T03:27:27;12.93;;;7.73;;
27013;SDS011;14556;52.222;4.510;2024-01-30T03:29:56;14.03;;;7.73;;
27013;SDS011;14556;52.222;4.510;2024-01-30T03:32:22;16.80;;;7.70;;
27013;SDS011;14556;52.222;4.510;2024-01-30T03:34:48;12.57;;;8.00;;
27013;SDS011;14556;52.222;4.510;2024-01-30T03:37:15;13.60;;;7.40;;
27013;SDS011;14556;52.222;4.510;2024-01-30T03:39:41;13.30;;;8.07;;
27013;SDS011;14556;52.222;4.510;2024-01-30T03:42:08;16.73;;;8.37;;
27013;SDS011;14556;52.222;4.510;2024-01-30T03:44:34;12.83;;;7.20;;
27013;SDS011;14556;52.222;4.510;2024-01-30T03:47:01;13.23;;;6.83;;
27013;SDS011;14556;52.222;4.510;2024-01-30T03:49:27;12.87;;;7.50;;
27013;SDS011;14556;52.222;4.510;2024-01-30T03:51:54;16.07;;;8.17;;
27013;SDS011;14556;52.222;4.510;2024-01-30T03:54:21;12.43;;;6.97;;
27013;SDS011;14556;52.222;4.510;2024-01-30T03:56:47;11.47;;;6.60;;
27013;SDS011;14556;52.222;4.510;2024-01-30T03:59:13;13.33;;;7.70;;
27013;SDS011;14556;52.222;4.510;2024-01-30T04:01:40;13.37;;;7.37;;
27013;SDS011;14556;52.222;4.510;2024-01-30T04:04:07;11.90;;;7.33;;
27013;SDS011;14556;52.222;4.510;2024-01-30T04:06:34;15.10;;;7.77;;
27013;SDS011;14556;52.222;4.510;2024-01-30T04:09:00;13.17;;;7.77;;
27013;SDS011;14556;52.222;4.510;2024-01-30T04:11:27;12.57;;;7.80;;
27013;SDS011;14556;52.222;4.510;2024-01-30T04:13:53;17.90;;;7.33;;
27013;SDS011;14556;52.222;4.510;2024-01-30T04:16:20;11.03;;;7.20;;
27013;SDS011;14556;52.222;4.510;2024-01-30T04:18:49;14.57;;;7.87;;
27013;SDS011;14556;52.222;4.510;2024-01-30T04:21:16;13.57;;;7.43;;
27013;SDS011;14556;52.222;4.510;2024-01-30T04:23:42;11.40;;;6.67;;
27013;SDS011;14556;52.222;4.510;2024-01-30T04:26:09;16.80;;;8.03;;
27013;SDS011;14556;52.222;4.510;2024-01-30T04:28:36;12.10;;;7.57;;
27013;SDS011;14556;52.222;4.510;2024-01-30T04:31:03;11.73;;;7.33;;
27013;SDS011;14556;52.222;4.510;2024-01-30T04:33:29;12.10;;;6.93;;
27013;SDS011;14556;52.222;4.510;2024-01-30T04:35:56;15.10;;;8.67;;
27013;SDS011;14556;52.222;4.510;2024-01-30T04:38:23;11.60;;;6.77;;
27013;SDS011;14556;52.222;4.510;2024-01-30T04:40:49;14.40;;;7.50;;
27013;SDS011;14556;52.222;4.510;2024-01-30T04:43:16;13.60;;;8.03;;
27013;SDS011;14556;52.222;4.510;2024-01-30T04:45:43;10.33;;;6.90;;
27013;SDS011;14556;52.222;4.510;2024-01-30T04:48:09;9.63;;;6.43;;
27013;SDS011;14556;52.222;4.510;2024-01-30T04:50:36;11.73;;;7.43;;
27013;SDS011;14556;52.222;4.510;2024-01-30T04:53:02;14.23;;;7.97;;
27013;SDS011;14556;52.222;4.510;2024-01-30T04:55:30;13.33;;;7.20;;
27013;SDS011;14556;52.222;4.510;2024-01-30T04:57:56;10.70;;;6.97;;
27013;SDS011;14556;52.222;4.510;2024-01-30T05:00:24;10.40;;;7.33;;
27013;SDS011;14556;52.222;4.510;2024-01-30T05:02:50;12.80;;;6.57;;
27013;SDS011;14556;52.222;4.510;2024-01-30T05:05:16;10.80;;;6.90;;
27013;SDS011;14556;52.222;4.510;2024-01-30T05:07:43;10.43;;;6.43;;
27013;SDS011;14556;52.222;4.510;2024-01-30T05:10:11;11.80;;;6.77;;
27013;SDS011;14556;52.222;4.510;2024-01-30T05:12:47;12.33;;;7.10;;
27013;SDS011;14556;52.222;4.510;2024-01-30T05:15:14;9.70;;;6.10;;
27013;SDS011;14556;52.222;4.510;2024-01-30T05:17:41;8.83;;;6.00;;
27013;SDS011;14556;52.222;4.510;2024-01-30T05:20:08;10.57;;;6.93;;
27013;SDS011;14556;52.222;4.510;2024-01-30T05:22:35;11.40;;;6.67;;
27013;SDS011;14556;52.222;4.510;2024-01-30T05:25:02;11.63;;;6.70;;
27013;SDS011;14556;52.222;4.510;2024-01-30T05:27:29;14.40;;;6.17;;
27013;SDS011;14556;52.222;4.510;2024-01-30T05:29:56;12.57;;;6.90;;
27013;SDS011;14556;52.222;4.510;2024-01-30T05:32:22;12.27;;;6.20;;
27013;SDS011;14556;52.222;4.510;2024-01-30T05:34:49;11.37;;;5.80;;
27013;SDS011;14556;52.222;4.510;2024-01-30T05:37:18;8.83;;;5.90;;
27013;SDS011;14556;52.222;4.510;2024-01-30T05:39:44;10.47;;;6.07;;
27013;SDS011;14556;52.222;4.510;2024-01-30T05:42:11;9.30;;;6.03;;
27013;SDS011;14556;52.222;4.510;2024-01-30T05:44:37;11.67;;;6.60;;
27013;SDS011;14556;52.222;4.510;2024-01-30T05:47:04;11.37;;;5.87;;
27013;SDS011;14556;52.222;4.510;2024-01-30T05:49:30;10.00;;;6.27;;
27013;SDS011;14556;52.222;4.510;2024-01-30T05:52:02;13.57;;;6.80;;
27013;SDS011;14556;52.222;4.510;2024-01-30T05:54:28;9.40;;;6.30;;
27013;SDS011;14556;52.222;4.510;2024-01-30T05:56:55;9.73;;;6.03;;
27013;SDS011;14556;52.222;4.510;2024-01-30T05:59:21;12.77;;;6.30;;
27013;SDS011;14556;52.222;4.510;2024-01-30T06:01:49;9.87;;;5.93;;
27013;SDS011;14556;52.222;4.510;2024-01-30T06:04:17;10.07;;;5.80;;
27013;SDS011;14556;52.222;4.510;2024-01-30T06:06:43;13.00;;;6.77;;
27013;SDS011;14556;52.222;4.510;2024-01-30T06:09:10;10.70;;;6.73;;
27013;SDS011;14556;52.222;4.510;2024-01-30T06:11:36;13.73;;;6.73;;
27013;SDS011;14556;52.222;4.510;2024-01-30T06:14:03;11.70;;;6.73;;
27013;SDS011;14556;52.222;4.510;2024-01-30T06:16:29;10.00;;;5.47;;
27013;SDS011;14556;52.222;4.510;2024-01-30T06:18:56;12.93;;;6.37;;
27013;SDS011;14556;52.222;4.510;2024-01-30T06:21:23;9.83;;;5.70;;
27013;SDS011;14556;52.222;4.510;2024-01-30T06:23:49;10.27;;;5.77;;
27013;SDS011;14556;52.222;4.510;2024-01-30T06:26:16;11.37;;;6.10;;
27013;SDS011;14556;52.222;4.510;2024-01-30T06:28:42;11.80;;;6.73;;
27013;SDS011;14556;52.222;4.510;2024-01-30T06:31:10;11.63;;;5.93;;
27013;SDS011;14556;52.222;4.510;2024-01-30T06:33:37;11.93;;;6.17;;
27013;SDS011;14556;52.222;4.510;2024-01-30T06:36:03;11.40;;;5.83;;
27013;SDS011;14556;52.222;4.510;2024-01-30T06:38:30;11.60;;;6.80;;
27013;SDS011;14556;52.222;4.510;2024-01-30T06:40:57;11.93;;;6.37;;
27013;SDS011;14556;52.222;4.510;2024-01-30T06:43:23;10.10;;;6.07;;
27013;SDS011;14556;52.222;4.510;2024-01-30T06:45:49;10.27;;;5.60;;
27013;SDS011;14556;52.222;4.510;2024-01-30T06:48:19;10.50;;;5.90;;
27013;SDS011;14556;52.222;4.510;2024-01-30T06:50:45;9.80;;;6.03;;
27013;SDS011;14556;52.222;4.510;2024-01-30T06:53:13;13.23;;;6.43;;
27013;SDS011;14556;52.222;4.510;2024-01-30T06:55:39;11.97;;;6.30;;
27013;SDS011;14556;52.222;4.510;2024-01-30T06:58:06;14.53;;;6.93;;
27013;SDS011;14556;52.222;4.510;2024-01-30T07:00:34;11.87;;;6.33;;
27013;SDS011;14556;52.222;4.510;2024-01-30T07:03:00;9.20;;;5.43;;
27013;SDS011;14556;52.222;4.510;2024-01-30T07:05:27;10.30;;;5.80;;
27013;SDS011;14556;52.222;4.510;2024-01-30T07:07:53;11.57;;;6.10;;
27013;SDS011;14556;52.222;4.510;2024-01-30T07:10:20;9.90;;;6.13;;
27013;SDS011;14556;52.222;4.510;2024-01-30T07:12:47;11.70;;;5.70;;
27013;SDS011;14556;52.222;4.510;2024-01-30T07:15:16;10.67;;;5.90;;
27013;SDS011;14556;52.222;4.510;2024-01-30T07:17:47;12.43;;;6.03;;
27013;SDS011;14556;52.222;4.510;2024-01-30T07:20:14;11.07;;;6.20;;
27013;SDS011;14556;52.222;4.510;2024-01-30T07:22:44;10.83;;;5.70;;
27013;SDS011;14556;52.222;4.510;2024-01-30T07:25:10;10.43;;;5.93;;
27013;SDS011;14556;52.222;4.510;2024-01-30T07:27:37;12.63;;;6.67;;
27013;SDS011;14556;52.222;4.510;2024-01-30T07:30:04;8.77;;;5.63;;
27013;SDS011;14556;52.222;4.510;2024-01-30T07:32:31;9.03;;;5.33;;
27013;SDS011;14556;52.222;4.510;2024-01-30T07:34:59;13.30;;;6.50;;
27013;SDS011;14556;52.222;4.510;2024-01-30T07:37:34;9.23;;;6.03;;
27013;SDS011;14556;52.222;4.510;2024-01-30T07:40:01;9.40;;;6.23;;
27013;SDS011;14556;52.222;4.510;2024-01-30T07:42:28;10.20;;;6.20;;
27013;SDS011;14556;52.222;4.510;2024-01-30T07:45:02;11.07;;;6.00;;
27013;SDS011;14556;52.222;4.510;2024-01-30T07:47:29;12.63;;;6.17;;
27013;SDS011;14556;52.222;4.510;2024-01-30T07:49:56;8.07;;;5.80;;
27013;SDS011;14556;52.222;4.510;2024-01-30T07:52:23;10.90;;;6.00;;
27013;SDS011;14556;52.222;4.510;2024-01-30T07:54:50;12.23;;;5.73;;
27013;SDS011;14556;52.222;4.510;2024-01-30T07:57:17;13.70;;;6.73;;
27013;SDS011;14556;52.222;4.510;2024-01-30T07:59:46;11.87;;;6.13;;
27013;SDS011;14556;52.222;4.510;2024-01-30T08:02:13;12.00;;;5.83;;
27013;SDS011;14556;52.222;4.510;2024-01-30T08:04:40;11.67;;;5.93;;
27013;SDS011;14556;52.222;4.510;2024-01-30T08:07:14;12.67;;;6.97;;
27013;SDS011;14556;52.222;4.510;2024-01-30T08:09:41;11.67;;;6.47;;
27013;SDS011;14556;52.222;4.510;2024-01-30T08:12:08;11.83;;;5.93;;
27013;SDS011;14556;52.222;4.510;2024-01-30T08:14:34;10.30;;;5.87;;
27013;SDS011;14556;52.222;4.510;2024-01-30T08:17:01;12.10;;;7.33;;
27013;SDS011;14556;52.222;4.510;2024-01-30T08:19:27;11.20;;;6.20;;
27013;SDS011;14556;52.222;4.510;2024-01-30T08:21:54;11.57;;;6.67;;
27013;SDS011;14556;52.222;4.510;2024-01-30T08:24:21;10.93;;;5.73;;
27013;SDS011;14556;52.222;4.510;2024-01-30T08:26:48;13.33;;;6.70;;
27013;SDS011;14556;52.222;4.510;2024-01-30T08:29:14;12.23;;;6.27;;
27013;SDS011;14556;52.222;4.510;2024-01-30T08:31:41;12.30;;;6.50;;
27013;SDS011;14556;52.222;4.510;2024-01-30T08:34:08;15.70;;;6.20;;
27013;SDS011;14556;52.222;4.510;2024-01-30T08:36:34;13.60;;;6.97;;
27013;SDS011;14556;52.222;4.510;2024-01-30T08:39:01;18.47;;;8.07;;
27013;SDS011;14556;52.222;4.510;2024-01-30T08:41:31;13.70;;;7.93;;
27013;SDS011;14556;52.222;4.510;2024-01-30T08:43:58;12.80;;;7.73;;
27013;SDS011;14556;52.222;4.510;2024-01-30T08:46:24;16.33;;;8.20;;
27013;SDS011;14556;52.222;4.510;2024-01-30T08:48:51;15.57;;;7.73;;
27013;SDS011;14556;52.222;4.510;2024-01-30T08:51:18;20.20;;;7.93;;
27013;SDS011;14556;52.222;4.510;2024-01-30T08:53:44;18.40;;;8.47;;
27013;SDS011;14556;52.222;4.510;2024-01-30T08:56:10;16.60;;;7.70;;
27013;SDS011;14556;52.222;4.510;2024-01-30T08:58:37;18.40;;;8.30;;
27013;SDS011;14556;52.222;4.510;2024-01-30T09:01:04;13.20;;;7.57;;
27013;SDS011;14556;52.222;4.510;2024-01-30T09:03:32;15.20;;;6.93;;
27013;SDS011;14556;52.222;4.510;2024-01-30T09:05:59;14.53;;;7.30;;
27013;SDS011;14556;52.222;4.510;2024-01-30T09:08:25;18.30;;;7.87;;
27013;SDS011;14556;52.222;4.510;2024-01-30T09:10:52;21.93;;;7.80;;
27013;SDS011;14556;52.222;4.510;2024-01-30T09:13:18;13.10;;;7.50;;
27013;SDS011;14556;52.222;4.510;2024-01-30T09:15:45;15.50;;;6.87;;
27013;SDS011;14556;52.222;4.510;2024-01-30T09:18:12;14.43;;;6.53;;
27013;SDS011;14556;52.222;4.510;2024-01-30T09:20:39;12.60;;;5.47;;
27013;SDS011;14556;52.222;4.510;2024-01-30T09:23:07;9.93;;;5.27;;
27013;SDS011;14556;52.222;4.510;2024-01-30T09:25:34;14.17;;;6.00;;
27013;SDS011;14556;52.222;4.510;2024-01-30T09:28:01;9.70;;;5.13;;
27013;SDS011;14556;52.222;4.510;2024-01-30T09:30:30;8.27;;;3.27;;
27013;SDS011;14556;52.222;4.510;2024-01-30T09:32:57;12.13;;;3.83;;
27013;SDS011;14556;52.222;4.510;2024-01-30T09:35:24;12.10;;;3.23;;
27013;SDS011;14556;52.222;4.510;2024-01-30T09:37:52;5.57;;;2.17;;
27013;SDS011;14556;52.222;4.510;2024-01-30T09:40:19;4.53;;;2.40;;
27013;SDS011;14556;52.222;4.510;2024-01-30T09:42:47;10.60;;;2.37;;
27013;SDS011;14556;52.222;4.510;2024-01-30T09:45:19;5.30;;;1.97;;
27013;SDS011;14556;52.222;4.510;2024-01-30T09:47:46;8.47;;;1.60;;
27013;SDS011;14556;52.222;4.510;2024-01-30T09:50:13;9.13;;;2.20;;
27013;SDS011;14556;52.222;4.510;2024-01-30T09:52:40;4.97;;;1.20;;
27013;SDS011;14556;52.222;4.510;2024-01-30T09:55:08;4.07;;;1.10;;
27013;SDS011;14556;52.222;4.510;2024-01-30T09:57:35;3.70;;;1.33;;
27013;SDS011;14556;52.222;4.510;2024-01-30T10:00:03;5.40;;;1.17;;
27013;SDS011;14556;52.222;4.510;2024-01-30T10:02:31;5.43;;;1.00;;
27013;SDS011;14556;52.222;4.510;2024-01-30T10:04:57;7.97;;;1.67;;
27013;SDS011;14556;52.222;4.510;2024-01-30T10:07:24;7.53;;;0.90;;
27013;SDS011;14556;52.222;4.510;2024-01-30T10:09:52;4.27;;;0.90;;
27013;SDS011;14556;52.222;4.510;2024-01-30T10:12:19;6.73;;;0.87;;
27013;SDS011;14556;52.222;4.510;2024-01-30T10:14:46;6.77;;;1.20;;
27013;SDS011;14556;52.222;4.510;2024-01-30T10:17:12;3.03;;;1.03;;
27013;SDS011;14556;52.222;4.510;2024-01-30T10:19:53;1.50;;;0.50;;
27013;SDS011;14556;52.222;4.510;2024-01-30T10:22:22;1.37;;;0.80;;
27013;SDS011;14556;52.222;4.510;2024-01-30T10:24:49;2.07;;;0.60;;
27013;SDS011;14556;52.222;4.510;2024-01-30T10:27:16;6.43;;;0.60;;
27013;SDS011;14556;52.222;4.510;2024-01-30T10:29:42;2.97;;;0.63;;
27013;SDS011;14556;52.222;4.510;2024-01-30T10:32:09;8.37;;;0.60;;
27013;SDS011;14556;52.222;4.510;2024-01-30T10:34:35;2.73;;;0.70;;
27013;SDS011;14556;52.222;4.510;2024-01-30T10:39:39;3.13;;;0.60;;
27013;SDS011;14556;52.222;4.510;2024-01-30T10:42:11;2.97;;;1.23;;
27013;SDS011;14556;52.222;4.510;2024-01-30T10:44:47;3.53;;;0.80;;
27013;SDS011;14556;52.222;4.510;2024-01-30T10:47:16;2.43;;;0.90;;
27013;SDS011;14556;52.222;4.510;2024-01-30T10:49:44;4.93;;;0.60;;
27013;SDS011;14556;52.222;4.510;2024-01-30T10:52:13;2.87;;;0.60;;
27013;SDS011;14556;52.222;4.510;2024-01-30T10:54:43;3.93;;;0.80;;
27013;SDS011;14556;52.222;4.510;2024-01-30T10:57:12;3.30;;;1.00;;
27013;SDS011;14556;52.222;4.510;2024-01-30T10:59:39;3.60;;;0.57;;
27013;SDS011;14556;52.222;4.510;2024-01-30T11:02:07;5.80;;;1.00;;
27013;SDS011;14556;52.222;4.510;2024-01-30T11:04:37;2.67;;;0.63;;
27013;SDS011;14556;52.222;4.510;2024-01-30T11:09:52;4.03;;;0.90;;
27013;SDS011;14556;52.222;4.510;2024-01-30T11:12:22;4.10;;;1.00;;
27013;SDS011;14556;52.222;4.510;2024-01-30T11:14:50;4.20;;;0.80;;
27013;SDS011;14556;52.222;4.510;2024-01-30T11:17:16;1.57;;;0.60;;
27013;SDS011;14556;52.222;4.510;2024-01-30T11:19:43;7.10;;;0.87;;
27013;SDS011;14556;52.222;4.510;2024-01-30T11:22:12;1.67;;;0.70;;
27013;SDS011;14556;52.222;4.510;2024-01-30T11:24:39;5.17;;;1.03;;
27013;SDS011;14556;52.222;4.510;2024-01-30T11:27:08;4.30;;;0.80;;
27013;SDS011;14556;52.222;4.510;2024-01-30T11:29:35;6.50;;;1.17;;
27013;SDS011;14556;52.222;4.510;2024-01-30T11:32:04;6.97;;;1.23;;
27013;SDS011;14556;52.222;4.510;2024-01-30T11:34:32;6.97;;;0.80;;
27013;SDS011;14556;52.222;4.510;2024-01-30T11:37:01;3.63;;;1.00;;
27013;SDS011;14556;52.222;4.510;2024-01-30T11:39:29;5.70;;;0.83;;
27013;SDS011;14556;52.222;4.510;2024-01-30T11:41:55;2.77;;;0.87;;
27013;SDS011;14556;52.222;4.510;2024-01-30T11:44:22;6.93;;;1.30;;
27013;SDS011;14556;52.222;4.510;2024-01-30T11:46:49;5.37;;;0.87;;
27013;SDS011;14556;52.222;4.510;2024-01-30T11:49:16;3.50;;;0.80;;
27013;SDS011;14556;52.222;4.510;2024-01-30T11:51:47;4.40;;;1.00;;
27013;SDS011;14556;52.222;4.510;2024-01-30T11:54:17;2.80;;;0.90;;
27013;SDS011;14556;52.222;4.510;2024-01-30T11:56:43;4.93;;;0.80;;
27013;SDS011;14556;52.222;4.510;2024-01-30T11:59:10;4.93;;;1.33;;
27013;SDS011;14556;52.222;4.510;2024-01-30T12:01:37;4.97;;;0.80;;
27013;SDS011;14556;52.222;4.510;2024-01-30T12:04:06;12.43;;;1.07;;
27013;SDS011;14556;52.222;4.510;2024-01-30T12:06:37;3.90;;;0.90;;
27013;SDS011;14556;52.222;4.510;2024-01-30T12:09:04;3.07;;;0.80;;
27013;SDS011;14556;52.222;4.510;2024-01-30T12:11:31;7.33;;;1.27;;
27013;SDS011;14556;52.222;4.510;2024-01-30T12:13:57;8.63;;;1.37;;
27013;SDS011;14556;52.222;4.510;2024-01-30T12:16:24;4.93;;;0.93;;
27013;SDS011;14556;52.222;4.510;2024-01-30T12:18:58;7.97;;;1.20;;
27013;SDS011;14556;52.222;4.510;2024-01-30T12:21:25;2.80;;;0.80;;
27013;SDS011;14556;52.222;4.510;2024-01-30T12:23:51;5.33;;;0.87;;
27013;SDS011;14556;52.222;4.510;2024-01-30T12:26:18;8.27;;;1.20;;
27013;SDS011;14556;52.222;4.510;2024-01-30T12:28:48;3.30;;;1.10;;
27013;SDS011;14556;52.222;4.510;2024-01-30T12:31:15;4.87;;;1.20;;
27013;SDS011;14556;52.222;4.510;2024-01-30T12:33:42;3.87;;;0.83;;
27013;SDS011;14556;52.222;4.510;2024-01-30T12:36:09;9.10;;;1.53;;
27013;SDS011;14556;52.222;4.510;2024-01-30T12:38:35;6.83;;;1.10;;
27013;SDS011;14556;52.222;4.510;2024-01-30T12:41:02;6.07;;;1.27;;
27013;SDS011;14556;52.222;4.510;2024-01-30T12:43:29;6.60;;;1.17;;
27013;SDS011;14556;52.222;4.510;2024-01-30T12:46:04;7.70;;;1.13;;
27013;SDS011;14556;52.222;4.510;2024-01-30T12:48:32;2.37;;;0.93;;
27013;SDS011;14556;52.222;4.510;2024-01-30T12:50:58;4.17;;;1.10;;
27013;SDS011;14556;52.222;4.510;2024-01-30T12:53:26;2.77;;;1.67;;
27013;SDS011;14556;52.222;4.510;2024-01-30T12:55:53;3.33;;;1.07;;
27013;SDS011;14556;52.222;4.510;2024-01-30T12:58:20;5.77;;;1.10;;
27013;SDS011;14556;52.222;4.510;2024-01-30T13:00:47;2.83;;;0.97;;
27013;SDS011;14556;52.222;4.510;2024-01-30T13:03:13;5.67;;;1.10;;
27013;SDS011;14556;52.222;4.510;2024-01-30T13:05:40;4.77;;;1.50;;
27013;SDS011;14556;52.222;4.510;2024-01-30T13:08:07;5.60;;;1.20;;
27013;SDS011;14556;52.222;4.510;2024-01-30T13:10:34;5.07;;;1.83;;
27013;SDS011;14556;52.222;4.510;2024-01-30T13:13:01;5.17;;;2.10;;
27013;SDS011;14556;52.222;4.510;2024-01-30T13:15:27;7.20;;;1.77;;
27013;SDS011;14556;52.222;4.510;2024-01-30T13:17:54;5.67;;;1.87;;
27013;SDS011;14556;52.222;4.510;2024-01-30T13:20:23;6.17;;;1.77;;
27013;SDS011;14556;52.222;4.510;2024-01-30T13:22:50;8.93;;;2.20;;
27013;SDS011;14556;52.222;4.510;2024-01-30T13:25:16;3.97;;;1.80;;
27013;SDS011;14556;52.222;4.510;2024-01-30T13:27:43;5.53;;;1.50;;
27013;SDS011;14556;52.222;4.510;2024-01-30T13:30:09;4.77;;;1.67;;
27013;SDS011;14556;52.222;4.510;2024-01-30T13:32:36;6.13;;;3.13;;
27013;SDS011;14556;52.222;4.510;2024-01-30T13:35:03;7.03;;;1.87;;
27013;SDS011;14556;52.222;4.510;2024-01-30T13:37:31;6.87;;;2.00;;
27013;SDS011;14556;52.222;4.510;2024-01-30T13:39:58;4.70;;;1.53;;
27013;SDS011;14556;52.222;4.510;2024-01-30T13:42:25;2.80;;;1.30;;
27013;SDS011;14556;52.222;4.510;2024-01-30T13:44:51;7.43;;;1.90;;
27013;SDS011;14556;52.222;4.510;2024-01-30T13:47:18;4.83;;;1.50;;
27013;SDS011;14556;52.222;4.510;2024-01-30T13:49:48;7.63;;;2.47;;
27013;SDS011;14556;52.222;4.510;2024-01-30T13:52:15;3.77;;;1.80;;
27013;SDS011;14556;52.222;4.510;2024-01-30T13:54:41;5.67;;;1.37;;
27013;SDS011;14556;52.222;4.510;2024-01-30T13:57:09;5.70;;;1.67;;
27013;SDS011;14556;52.222;4.510;2024-01-30T13:59:35;5.20;;;1.90;;
27013;SDS011;14556;52.222;4.510;2024-01-30T14:02:02;4.10;;;1.90;;
27013;SDS011;14556;52.222;4.510;2024-01-30T14:04:29;6.07;;;2.00;;
27013;SDS011;14556;52.222;4.510;2024-01-30T14:06:56;3.20;;;1.67;;
27013;SDS011;14556;52.222;4.510;2024-01-30T14:09:30;4.70;;;1.70;;
27013;SDS011;14556;52.222;4.510;2024-01-30T14:11:58;5.00;;;1.77;;
27013;SDS011;14556;52.222;4.510;2024-01-30T14:14:24;3.80;;;1.40;;
27013;SDS011;14556;52.222;4.510;2024-01-30T14:16:51;3.07;;;1.57;;
27013;SDS011;14556;52.222;4.510;2024-01-30T14:19:18;6.03;;;1.90;;
27013;SDS011;14556;52.222;4.510;2024-01-30T14:21:44;7.43;;;1.70;;
27013;SDS011;14556;52.222;4.510;2024-01-30T14:24:11;3.60;;;1.47;;
27013;SDS011;14556;52.222;4.510;2024-01-30T14:26:37;3.47;;;1.70;;
27013;SDS011;14556;52.222;4.510;2024-01-30T14:29:04;3.67;;;1.57;;
27013;SDS011;14556;52.222;4.510;2024-01-30T14:31:30;5.77;;;1.87;;
27013;SDS011;14556;52.222;4.510;2024-01-30T14:33:56;4.47;;;1.63;;
27013;SDS011;14556;52.222;4.510;2024-01-30T14:36:24;5.97;;;1.77;;
27013;SDS011;14556;52.222;4.510;2024-01-30T14:38:54;4.20;;;1.70;;
27013;SDS011;14556;52.222;4.510;2024-01-30T14:41:21;5.30;;;1.50;;
27013;SDS011;14556;52.222;4.510;2024-01-30T14:43:49;4.13;;;1.63;;
27013;SDS011;14556;52.222;4.510;2024-01-30T14:46:16;2.70;;;1.60;;